sensor_id;sensor_type;location;lat;lon;timestamp;pressure;altitude;pressure_sealevel;temperature;humidity
21779;BME280;11050;52.222;20.916;2022-08-21T00:02:27;99753.78;;;23.66;77.07
21779;BME280;11050;52.222;20.916;2022-08-21T00:04:54;99750.03;;;23.62;77.23
21779;BME280;11050;52.222;20.916;2022-08-21T00:07:20;99751.44;;;23.56;78.31
21779;BME280;11050;52.222;20.916;2022-08-21T00:09:47;99764.91;;;23.50;78.82
21779;BME280;11050;52.222;20.916;2022-08-21T00:12:13;99761.53;;;23.45;79.05
21779;BME280;11050;52.222;20.916;2022-08-21T00:14:39;99761.41;;;23.41;79.25
21779;BME280;11050;52.222;20.916;2022-08-21T00:17:06;99765.25;;;23.37;79.56
21779;BME280;11050;52.222;20.916;2022-08-21T00:19:33;99762.69;;;23.32;80.00
21779;BME280;11050;52.222;20.916;2022-08-21T00:22:00;99760.44;;;23.25;80.18
21779;BME280;11050;52.222;20.916;2022-08-21T00:24:26;99754.47;;;23.27;80.93
21779;BME280;11050;52.222;20.916;2022-08-21T00:26:52;99749.13;;;23.22;80.99
21779;BME280;11050;52.222;20.916;2022-08-21T00:29:18;99753.09;;;23.21;81.18
21779;BME280;11050;52.222;20.916;2022-08-21T00:31:45;99751.34;;;23.16;81.55
21779;BME280;11050;52.222;20.916;2022-08-21T00:34:12;99745.63;;;23.13;81.61
21779;BME280;11050;52.222;20.916;2022-08-21T00:36:39;99741.88;;;23.09;82.34
21779;BME280;11050;52.222;20.916;2022-08-21T00:39:07;99742.44;;;23.02;82.96
21779;BME280;11050;52.222;20.916;2022-08-21T00:41:36;99733.91;;;22.99;83.12
21779;BME280;11050;52.222;20.916;2022-08-21T00:44:03;99736.25;;;22.97;83.68
21779;BME280;11050;52.222;20.916;2022-08-21T00:46:30;99732.53;;;22.93;83.86
21779;BME280;11050;52.222;20.916;2022-08-21T00:48:56;99736.03;;;22.90;84.28
21779;BME280;11050;52.222;20.916;2022-08-21T00:51:32;99725.06;;;22.85;84.69
21779;BME280;11050;52.222;20.916;2022-08-21T00:54:01;99722.94;;;22.82;84.95
21779;BME280;11050;52.222;20.916;2022-08-21T00:56:28;99732.41;;;22.77;85.37
21779;BME280;11050;52.222;20.916;2022-08-21T00:58:56;99732.75;;;22.76;85.50
21779;BME280;11050;52.222;20.916;2022-08-21T01:01:23;99726.22;;;22.72;86.11
21779;BME280;11050;52.222;20.916;2022-08-21T01:03:49;99736.13;;;22.69;85.93
21779;BME280;11050;52.222;20.916;2022-08-21T01:06:15;99719.91;;;22.63;86.88
21779;BME280;11050;52.222;20.916;2022-08-21T01:08:42;99724.19;;;22.60;86.91
21779;BME280;11050;52.222;20.916;2022-08-21T01:11:08;99714.16;;;22.59;87.14
21779;BME280;11050;52.222;20.916;2022-08-21T01:13:37;99716.78;;;22.55;87.72
21779;BME280;11050;52.222;20.916;2022-08-21T01:16:09;99718.66;;;22.51;87.88
21779;BME280;11050;52.222;20.916;2022-08-21T01:18:35;99715.38;;;22.49;88.66
21779;BME280;11050;52.222;20.916;2022-08-21T01:21:09;99719.34;;;22.48;88.34
21779;BME280;11050;52.222;20.916;2022-08-21T01:23:39;99708.88;;;22.45;88.65
21779;BME280;11050;52.222;20.916;2022-08-21T01:26:06;99716.31;;;22.41;89.04
21779;BME280;11050;52.222;20.916;2022-08-21T01:28:40;99720.97;;;22.37;89.22
21779;BME280;11050;52.222;20.916;2022-08-21T01:31:10;99720.50;;;22.35;89.93
21779;BME280;11050;52.222;20.916;2022-08-21T01:33:37;99712.31;;;22.30;89.95
21779;BME280;11050;52.222;20.916;2022-08-21T01:36:04;99712.31;;;22.30;90.33
21779;BME280;11050;52.222;20.916;2022-08-21T01:38:30;99717.94;;;22.30;90.28
21779;BME280;11050;52.222;20.916;2022-08-21T01:40:56;99704.94;;;22.26;90.81
21779;BME280;11050;52.222;20.916;2022-08-21T01:43:22;99707.28;;;22.24;90.83
21779;BME280;11050;52.222;20.916;2022-08-21T01:45:48;99706.81;;;22.22;91.07
21779;BME280;11050;52.222;20.916;2022-08-21T01:48:13;99701.56;;;22.20;91.08
21779;BME280;11050;52.222;20.916;2022-08-21T01:50:39;99708.66;;;22.18;91.48
21779;BME280;11050;52.222;20.916;2022-08-21T01:53:05;99700.59;;;22.16;91.42
21779;BME280;11050;52.222;20.916;2022-08-21T01:55:31;99695.34;;;22.15;91.66
21779;BME280;11050;52.222;20.916;2022-08-21T01:57:59;99689.63;;;22.11;91.48
21779;BME280;11050;52.222;20.916;2022-08-21T02:00:26;99685.88;;;22.07;92.51
21779;BME280;11050;52.222;20.916;2022-08-21T02:02:52;99691.00;;;22.05;92.70
21779;BME280;11050;52.222;20.916;2022-08-21T02:05:19;99688.56;;;22.04;92.62
21779;BME280;11050;52.222;20.916;2022-08-21T02:07:50;99692.03;;;22.01;93.14
21779;BME280;11050;52.222;20.916;2022-08-21T02:10:22;99698.47;;;22.01;92.76
21779;BME280;11050;52.222;20.916;2022-08-21T02:12:49;99698.81;;;22.00;93.09
21779;BME280;11050;52.222;20.916;2022-08-21T02:15:15;99688.28;;;21.97;93.35
21779;BME280;11050;52.222;20.916;2022-08-21T02:17:49;99682.25;;;21.95;93.31
21779;BME280;11050;52.222;20.916;2022-08-21T02:20:27;99680.94;;;21.92;93.69
21779;BME280;11050;52.222;20.916;2022-08-21T02:22:54;99681.28;;;21.91;93.87
21779;BME280;11050;52.222;20.916;2022-08-21T02:25:22;99683.59;;;21.89;94.37
21779;BME280;11050;52.222;20.916;2022-08-21T02:27:48;99681.16;;;21.87;94.04
21779;BME280;11050;52.222;20.916;2022-08-21T02:30:24;99674.63;;;21.83;94.19
21779;BME280;11050;52.222;20.916;2022-08-21T02:32:50;99669.69;;;21.80;94.69
21779;BME280;11050;52.222;20.916;2022-08-21T02:35:17;99678.41;;;21.79;95.00
21779;BME280;11050;52.222;20.916;2022-08-21T02:38:07;99675.13;;;21.77;95.24
21779;BME280;11050;52.222;20.916;2022-08-21T02:40:38;99677.09;;;21.76;94.98
21779;BME280;11050;52.222;20.916;2022-08-21T02:43:06;99675.00;;;21.73;95.00
21779;BME280;11050;52.222;20.916;2022-08-21T02:45:33;99670.09;;;21.70;95.44
21779;BME280;11050;52.222;20.916;2022-08-21T02:48:08;99667.50;;;21.65;95.30
21779;BME280;11050;52.222;20.916;2022-08-21T02:50:40;99656.19;;;21.61;95.94
21779;BME280;11050;52.222;20.916;2022-08-21T02:53:08;99662.59;;;21.62;96.12
21779;BME280;11050;52.222;20.916;2022-08-21T02:55:36;99656.88;;;21.58;95.91
21779;BME280;11050;52.222;20.916;2022-08-21T02:58:06;99652.28;;;21.54;96.30
21779;BME280;11050;52.222;20.916;2022-08-21T03:00:36;99655.56;;;21.56;96.49
21779;BME280;11050;52.222;20.916;2022-08-21T03:03:04;99654.25;;;21.53;96.93
21779;BME280;11050;52.222;20.916;2022-08-21T03:05:32;99658.22;;;21.52;97.09
21779;BME280;11050;52.222;20.916;2022-08-21T03:08:01;99648.53;;;21.50;97.60
21779;BME280;11050;52.222;20.916;2022-08-21T03:10:28;99649.59;;;21.45;97.51
21779;BME280;11050;52.222;20.916;2022-08-21T03:12:54;99642.81;;;21.46;97.73
21779;BME280;11050;52.222;20.916;2022-08-21T03:15:22;99644.00;;;21.45;97.66
21779;BME280;11050;52.222;20.916;2022-08-21T03:17:50;99646.66;;;21.42;98.13
21779;BME280;11050;52.222;20.916;2022-08-21T03:20:21;99646.19;;;21.40;98.19
21779;BME280;11050;52.222;20.916;2022-08-21T03:22:48;99646.00;;;21.36;98.70
21779;BME280;11050;52.222;20.916;2022-08-21T03:25:14;99654.41;;;21.36;98.77
21779;BME280;11050;52.222;20.916;2022-08-21T03:27:39;99653.59;;;21.36;98.70
21779;BME280;11050;52.222;20.916;2022-08-21T03:30:07;99652.78;;;21.35;99.46
21779;BME280;11050;52.222;20.916;2022-08-21T03:32:33;99651.47;;;21.33;99.47
21779;BME280;11050;52.222;20.916;2022-08-21T03:35:00;99642.28;;;21.32;99.84
21779;BME280;11050;52.222;20.916;2022-08-21T03:37:27;99635.88;;;21.32;99.65
21779;BME280;11050;52.222;20.916;2022-08-21T03:39:53;99636.84;;;21.36;99.59
21779;BME280;11050;52.222;20.916;2022-08-21T03:42:19;99635.66;;;21.37;99.47
21779;BME280;11050;52.222;20.916;2022-08-21T03:44:45;99648.97;;;21.40;99.35
21779;BME280;11050;52.222;20.916;2022-08-21T03:47:11;99651.91;;;21.43;98.88
21779;BME280;11050;52.222;20.916;2022-08-21T03:49:37;99647.59;;;21.46;99.01
21779;BME280;11050;52.222;20.916;2022-08-21T03:52:04;99653.66;;;21.48;99.12
21779;BME280;11050;52.222;20.916;2022-08-21T03:54:30;99655.78;;;21.51;99.05
21779;BME280;11050;52.222;20.916;2022-08-21T03:56:56;99653.47;;;21.53;99.03
21779;BME280;11050;52.222;20.916;2022-08-21T03:59:22;99654.25;;;21.53;98.41
21779;BME280;11050;52.222;20.916;2022-08-21T04:02:02;99655.69;;;21.59;98.33
21779;BME280;11050;52.222;20.916;2022-08-21T04:04:29;99660.28;;;21.64;98.02
21779;BME280;11050;52.222;20.916;2022-08-21T04:06:56;99657.59;;;21.67;97.83
21779;BME280;11050;52.222;20.916;2022-08-21T04:09:23;99662.97;;;21.73;97.52
21779;BME280;11050;52.222;20.916;2022-08-21T04:11:50;99663.09;;;21.76;97.08
21779;BME280;11050;52.222;20.916;2022-08-21T04:14:17;99663.59;;;21.78;97.16
21779;BME280;11050;52.222;20.916;2022-08-21T04:16:43;99662.72;;;21.86;96.63
21779;BME280;11050;52.222;20.916;2022-08-21T04:19:12;99661.22;;;21.89;96.73
21779;BME280;11050;52.222;20.916;2022-08-21T04:21:39;99661.34;;;21.92;96.14
21779;BME280;11050;52.222;20.916;2022-08-21T04:24:08;99663.91;;;21.97;95.84
21779;BME280;11050;52.222;20.916;2022-08-21T04:26:36;99658.13;;;22.02;95.62
21779;BME280;11050;52.222;20.916;2022-08-21T04:29:04;99657.19;;;22.10;95.08
21779;BME280;11050;52.222;20.916;2022-08-21T04:31:33;99658.97;;;22.15;94.72
21779;BME280;11050;52.222;20.916;2022-08-21T04:33:59;99654.31;;;22.19;94.98
21779;BME280;11050;52.222;20.916;2022-08-21T04:36:26;99657.34;;;22.26;94.04
21779;BME280;11050;52.222;20.916;2022-08-21T04:38:52;99655.63;;;22.33;93.71
21779;BME280;11050;52.222;20.916;2022-08-21T04:41:17;99650.72;;;22.42;92.51
21779;BME280;11050;52.222;20.916;2022-08-21T04:43:44;99649.69;;;22.47;92.19
21779;BME280;11050;52.222;20.916;2022-08-21T04:46:10;99654.22;;;22.51;91.71
21779;BME280;11050;52.222;20.916;2022-08-21T04:48:36;99651.59;;;22.55;90.85
21779;BME280;11050;52.222;20.916;2022-08-21T04:56:13;99654.53;;;22.71;89.32
21779;BME280;11050;52.222;20.916;2022-08-21T04:58:42;99651.63;;;22.79;89.22
21779;BME280;11050;52.222;20.916;2022-08-21T05:01:14;99650.44;;;22.92;88.39
21779;BME280;11050;52.222;20.916;2022-08-21T05:03:42;99648.44;;;23.05;87.89
21779;BME280;11050;52.222;20.916;2022-08-21T05:06:12;99649.34;;;23.21;86.69
21779;BME280;11050;52.222;20.916;2022-08-21T05:08:41;99651.78;;;23.34;86.04
21779;BME280;11050;52.222;20.916;2022-08-21T05:11:09;99657.84;;;23.48;84.39
21779;BME280;11050;52.222;20.916;2022-08-21T05:13:35;99663.41;;;23.61;83.22
21779;BME280;11050;52.222;20.916;2022-08-21T05:16:02;99667.25;;;23.68;82.24
21779;BME280;11050;52.222;20.916;2022-08-21T05:18:28;99662.66;;;23.76;81.98
21779;BME280;11050;52.222;20.916;2022-08-21T05:20:53;99661.78;;;23.87;81.21
21779;BME280;11050;52.222;20.916;2022-08-21T05:23:19;99660.81;;;23.95;81.26
21779;BME280;11050;52.222;20.916;2022-08-21T05:25:45;99665.50;;;24.03;80.69
21779;BME280;11050;52.222;20.916;2022-08-21T05:28:11;99665.59;;;24.07;80.35
21779;BME280;11050;52.222;20.916;2022-08-21T05:30:38;99654.91;;;24.12;80.25
21779;BME280;11050;52.222;20.916;2022-08-21T05:33:06;99666.31;;;24.19;79.35
21779;BME280;11050;52.222;20.916;2022-08-21T05:35:33;99667.31;;;24.27;79.69
21779;BME280;11050;52.222;20.916;2022-08-21T05:38:00;99661.00;;;24.30;78.71
21779;BME280;11050;52.222;20.916;2022-08-21T05:40:27;99654.56;;;24.29;77.82
21779;BME280;11050;52.222;20.916;2022-08-21T05:42:54;99669.53;;;24.33;77.42
21779;BME280;11050;52.222;20.916;2022-08-21T05:45:22;99662.53;;;24.27;76.49
21779;BME280;11050;52.222;20.916;2022-08-21T05:47:49;99671.41;;;24.29;76.32
21779;BME280;11050;52.222;20.916;2022-08-21T05:50:15;99669.06;;;24.31;76.74
21779;BME280;11050;52.222;20.916;2022-08-21T05:52:40;99665.91;;;24.33;76.82
21779;BME280;11050;52.222;20.916;2022-08-21T05:55:07;99668.78;;;24.36;76.72
21779;BME280;11050;52.222;20.916;2022-08-21T05:57:32;99674.25;;;24.45;77.09
21779;BME280;11050;52.222;20.916;2022-08-21T05:59:58;99672.91;;;24.55;75.92
21779;BME280;11050;52.222;20.916;2022-08-21T06:02:24;99673.81;;;24.59;75.02
21779;BME280;11050;52.222;20.916;2022-08-21T06:04:50;99661.00;;;24.61;74.67
21779;BME280;11050;52.222;20.916;2022-08-21T06:07:15;99665.28;;;24.71;74.79
21779;BME280;11050;52.222;20.916;2022-08-21T06:09:41;99670.66;;;24.76;73.46
21779;BME280;11050;52.222;20.916;2022-08-21T06:12:10;99665.47;;;24.78;73.13
21779;BME280;11050;52.222;20.916;2022-08-21T06:14:39;99674.06;;;25.00;72.96
21779;BME280;11050;52.222;20.916;2022-08-21T06:17:09;99692.28;;;25.22;72.59
21779;BME280;11050;52.222;20.916;2022-08-21T06:19:37;99690.16;;;25.34;71.89
21779;BME280;11050;52.222;20.916;2022-08-21T06:22:04;99684.97;;;25.52;71.80
21779;BME280;11050;52.222;20.916;2022-08-21T06:24:31;99683.00;;;25.72;70.66
21779;BME280;11050;52.222;20.916;2022-08-21T06:26:57;99680.34;;;25.98;69.62
21779;BME280;11050;52.222;20.916;2022-08-21T06:29:28;99686.31;;;26.15;68.21
21779;BME280;11050;52.222;20.916;2022-08-21T06:31:54;99686.19;;;26.27;67.16
21779;BME280;11050;52.222;20.916;2022-08-21T06:34:20;99695.25;;;26.40;66.42
21779;BME280;11050;52.222;20.916;2022-08-21T06:36:45;99692.88;;;26.42;65.40
21779;BME280;11050;52.222;20.916;2022-08-21T06:39:11;99701.34;;;26.42;65.64
21779;BME280;11050;52.222;20.916;2022-08-21T06:41:39;99694.03;;;26.38;65.88
21779;BME280;11050;52.222;20.916;2022-08-21T06:44:04;99696.09;;;26.41;65.33
21779;BME280;11050;52.222;20.916;2022-08-21T06:46:31;99701.28;;;26.39;66.11
21779;BME280;11050;52.222;20.916;2022-08-21T06:48:57;99704.97;;;26.43;65.92
21779;BME280;11050;52.222;20.916;2022-08-21T06:51:25;99703.78;;;26.44;65.73
21779;BME280;11050;52.222;20.916;2022-08-21T06:53:52;99697.34;;;26.43;65.87
21779;BME280;11050;52.222;20.916;2022-08-21T06:56:18;99703.94;;;26.51;65.36
21779;BME280;11050;52.222;20.916;2022-08-21T06:58:44;99702.44;;;26.57;64.61
21779;BME280;11050;52.222;20.916;2022-08-21T07:01:11;99703.56;;;26.52;63.89
21779;BME280;11050;52.222;20.916;2022-08-21T07:03:40;99711.94;;;26.49;63.83
21779;BME280;11050;52.222;20.916;2022-08-21T07:06:08;99701.06;;;26.47;64.46
21779;BME280;11050;52.222;20.916;2022-08-21T07:08:36;99700.72;;;26.52;63.44
21779;BME280;11050;52.222;20.916;2022-08-21T07:11:09;99706.44;;;26.56;64.02
21779;BME280;11050;52.222;20.916;2022-08-21T07:13:36;99688.75;;;26.59;64.36
21779;BME280;11050;52.222;20.916;2022-08-21T07:16:02;99705.59;;;26.74;64.43
21779;BME280;11050;52.222;20.916;2022-08-21T07:18:28;99696.75;;;26.76;61.69
21779;BME280;11050;52.222;20.916;2022-08-21T07:20:55;99700.34;;;26.73;63.45
21779;BME280;11050;52.222;20.916;2022-08-21T07:23:39;99696.41;;;26.77;62.14
21779;BME280;11050;52.222;20.916;2022-08-21T07:26:06;99698.31;;;26.96;62.09
21779;BME280;11050;52.222;20.916;2022-08-21T07:28:33;99689.63;;;27.08;61.08
21779;BME280;11050;52.222;20.916;2022-08-21T07:31:01;99690.69;;;27.23;60.34
21779;BME280;11050;52.222;20.916;2022-08-21T07:33:30;99694.78;;;27.29;59.84
21779;BME280;11050;52.222;20.916;2022-08-21T07:35:57;99685.75;;;27.42;60.19
21779;BME280;11050;52.222;20.916;2022-08-21T07:38:23;99691.63;;;27.56;60.05
21779;BME280;11050;52.222;20.916;2022-08-21T07:40:53;99686.88;;;27.64;58.93
21779;BME280;11050;52.222;20.916;2022-08-21T07:43:20;99684.19;;;27.74;60.08
21779;BME280;11050;52.222;20.916;2022-08-21T07:45:48;99679.59;;;27.92;59.12
21779;BME280;11050;52.222;20.916;2022-08-21T07:48:15;99676.16;;;28.06;58.28
21779;BME280;11050;52.222;20.916;2022-08-21T07:50:42;99671.03;;;28.15;58.02
21779;BME280;11050;52.222;20.916;2022-08-21T07:53:08;99667.50;;;28.25;57.84
21779;BME280;11050;52.222;20.916;2022-08-21T07:55:35;99671.28;;;28.40;56.65
21779;BME280;11050;52.222;20.916;2022-08-21T07:58:00;99671.00;;;28.52;56.28
21779;BME280;11050;52.222;20.916;2022-08-21T08:00:28;99666.69;;;28.61;56.84
21779;BME280;11050;52.222;20.916;2022-08-21T08:02:55;99668.41;;;28.73;56.52
21779;BME280;11050;52.222;20.916;2022-08-21T08:05:27;99670.91;;;28.85;55.92
21779;BME280;11050;52.222;20.916;2022-08-21T08:07:54;99670.16;;;28.88;55.11
21779;BME280;11050;52.222;20.916;2022-08-21T08:10:21;99663.81;;;29.02;54.89
21779;BME280;11050;52.222;20.916;2022-08-21T08:12:49;99667.97;;;29.15;53.80
21779;BME280;11050;52.222;20.916;2022-08-21T08:15:20;99664.75;;;29.20;53.98
21779;BME280;11050;52.222;20.916;2022-08-21T08:17:47;99651.06;;;29.29;53.38
21779;BME280;11050;52.222;20.916;2022-08-21T08:20:16;99660.84;;;29.42;52.55
21779;BME280;11050;52.222;20.916;2022-08-21T08:22:43;99662.13;;;29.51;52.61
21779;BME280;11050;52.222;20.916;2022-08-21T08:25:12;99665.78;;;29.55;51.56
21779;BME280;11050;52.222;20.916;2022-08-21T08:27:39;99662.16;;;29.55;51.25
21779;BME280;11050;52.222;20.916;2022-08-21T08:30:08;99666.59;;;29.52;51.32
21779;BME280;11050;52.222;20.916;2022-08-21T08:32:34;99665.41;;;29.57;52.06
21779;BME280;11050;52.222;20.916;2022-08-21T08:35:00;99665.06;;;29.65;52.65
21779;BME280;11050;52.222;20.916;2022-08-21T08:37:26;99672.81;;;29.75;50.78
21779;BME280;11050;52.222;20.916;2022-08-21T08:39:52;99659.44;;;29.72;49.49
21779;BME280;11050;52.222;20.916;2022-08-21T08:42:31;99665.97;;;29.83;49.88
21779;BME280;11050;52.222;20.916;2022-08-21T08:45:25;99663.16;;;29.90;49.36
21779;BME280;11050;52.222;20.916;2022-08-21T08:48:04;99664.81;;;29.95;49.86
21779;BME280;11050;52.222;20.916;2022-08-21T08:51:12;99659.56;;;30.08;49.89
21779;BME280;11050;52.222;20.916;2022-08-21T08:54:00;99662.03;;;30.16;48.90
21779;BME280;11050;52.222;20.916;2022-08-21T08:56:32;99657.63;;;30.22;49.61
21779;BME280;11050;52.222;20.916;2022-08-21T08:59:13;99654.00;;;30.32;48.75
21779;BME280;11050;52.222;20.916;2022-08-21T09:01:41;99657.28;;;30.41;49.83
21779;BME280;11050;52.222;20.916;2022-08-21T09:04:09;99660.94;;;30.52;49.10
21779;BME280;11050;52.222;20.916;2022-08-21T09:09:40;99656.13;;;30.85;46.32
21779;BME280;11050;52.222;20.916;2022-08-21T09:17:55;99658.97;;;31.09;44.98
21779;BME280;11050;52.222;20.916;2022-08-21T09:20:48;99656.13;;;31.09;46.13
21779;BME280;11050;52.222;20.916;2022-08-21T09:26:25;99656.91;;;30.78;46.37
21779;BME280;11050;52.222;20.916;2022-08-21T09:28:56;99650.41;;;30.77;45.58
21779;BME280;11050;52.222;20.916;2022-08-21T09:31:31;99659.78;;;30.99;46.56
21779;BME280;11050;52.222;20.916;2022-08-21T09:34:04;99662.97;;;31.43;45.08
21779;BME280;11050;52.222;20.916;2022-08-21T09:36:47;99653.09;;;31.83;42.96
21779;BME280;11050;52.222;20.916;2022-08-21T09:39:39;99658.31;;;32.06;43.11
21779;BME280;11050;52.222;20.916;2022-08-21T09:42:08;99664.66;;;32.34;42.86
21779;BME280;11050;52.222;20.916;2022-08-21T09:44:39;99652.09;;;32.28;41.07
21779;BME280;11050;52.222;20.916;2022-08-21T09:47:10;99659.97;;;32.03;41.04
21779;BME280;11050;52.222;20.916;2022-08-21T09:49:42;99652.72;;;31.85;42.52
21779;BME280;11050;52.222;20.916;2022-08-21T09:52:21;99652.41;;;31.61;42.69
21779;BME280;11050;52.222;20.916;2022-08-21T09:54:54;99648.41;;;31.41;44.37
21779;BME280;11050;52.222;20.916;2022-08-21T09:57:28;99649.19;;;31.28;44.35
21779;BME280;11050;52.222;20.916;2022-08-21T10:02:48;99643.94;;;31.12;44.91
21779;BME280;11050;52.222;20.916;2022-08-21T10:05:23;99650.03;;;31.14;45.53
21779;BME280;11050;52.222;20.916;2022-08-21T10:07:50;99646.34;;;31.21;45.50
21779;BME280;11050;52.222;20.916;2022-08-21T10:10:32;99641.88;;;31.27;45.84
21779;BME280;11050;52.222;20.916;2022-08-21T10:16:41;99640.25;;;31.50;43.29
21779;BME280;11050;52.222;20.916;2022-08-21T10:30:15;99634.56;;;31.54;45.21
21779;BME280;11050;52.222;20.916;2022-08-21T10:36:13;99632.16;;;31.38;46.40
21779;BME280;11050;52.222;20.916;2022-08-21T10:39:47;99629.31;;;31.35;45.32
21779;BME280;11050;52.222;20.916;2022-08-21T10:42:22;99641.94;;;31.13;45.28
21779;BME280;11050;52.222;20.916;2022-08-21T10:47:41;99635.03;;;31.07;47.28
21779;BME280;11050;52.222;20.916;2022-08-21T10:58:37;99645.84;;;31.68;44.36
21779;BME280;11050;52.222;20.916;2022-08-21T11:01:12;99642.63;;;31.73;44.08
21779;BME280;11050;52.222;20.916;2022-08-21T11:03:46;99638.50;;;31.78;43.10
21779;BME280;11050;52.222;20.916;2022-08-21T11:06:27;99636.44;;;31.85;42.23
21779;BME280;11050;52.222;20.916;2022-08-21T11:09:12;99631.97;;;32.02;42.05
21779;BME280;11050;52.222;20.916;2022-08-21T11:12:10;99627.13;;;32.60;40.91
21779;BME280;11050;52.222;20.916;2022-08-21T11:18:00;99629.09;;;34.76;36.43
21779;BME280;11050;52.222;20.916;2022-08-21T11:20:50;99628.47;;;35.58;34.64
21779;BME280;11050;52.222;20.916;2022-08-21T11:23:25;99627.13;;;35.62;33.86
21779;BME280;11050;52.222;20.916;2022-08-21T11:26:02;99621.78;;;35.45;33.87
21779;BME280;11050;52.222;20.916;2022-08-21T11:28:39;99632.91;;;35.16;34.62
21779;BME280;11050;52.222;20.916;2022-08-21T11:34:18;99627.78;;;34.58;34.40
21779;BME280;11050;52.222;20.916;2022-08-21T11:42:30;99632.84;;;34.16;34.68
21779;BME280;11050;52.222;20.916;2022-08-21T11:45:32;99627.69;;;34.88;34.31
21779;BME280;11050;52.222;20.916;2022-08-21T11:50:55;99627.53;;;37.07;31.04
21779;BME280;11050;52.222;20.916;2022-08-21T11:53:48;99634.31;;;38.15;29.94
21779;BME280;11050;52.222;20.916;2022-08-21T11:56:25;99632.75;;;39.15;27.94
21779;BME280;11050;52.222;20.916;2022-08-21T11:59:11;99641.03;;;39.81;26.24
21779;BME280;11050;52.222;20.916;2022-08-21T12:01:43;99634.59;;;40.20;26.25
21779;BME280;11050;52.222;20.916;2022-08-21T12:04:26;99635.22;;;40.77;25.89
21779;BME280;11050;52.222;20.916;2022-08-21T12:06:53;99633.19;;;41.35;24.44
21779;BME280;11050;52.222;20.916;2022-08-21T12:14:47;99621.06;;;39.99;24.86
21779;BME280;11050;52.222;20.916;2022-08-21T12:17:23;99624.50;;;40.16;24.83
21779;BME280;11050;52.222;20.916;2022-08-21T12:20:33;99617.88;;;40.06;25.46
21779;BME280;11050;52.222;20.916;2022-08-21T12:26:00;99621.16;;;39.40;26.10
21779;BME280;11050;52.222;20.916;2022-08-21T12:28:29;99620.50;;;38.64;26.85
21779;BME280;11050;52.222;20.916;2022-08-21T12:30:56;99626.03;;;38.71;26.84
21779;BME280;11050;52.222;20.916;2022-08-21T12:33:38;99625.69;;;39.28;26.53
21779;BME280;11050;52.222;20.916;2022-08-21T12:36:18;99630.84;;;40.32;25.44
21779;BME280;11050;52.222;20.916;2022-08-21T12:41:27;99626.78;;;41.85;22.42
21779;BME280;11050;52.222;20.916;2022-08-21T12:44:07;99636.72;;;41.84;22.61
21779;BME280;11050;52.222;20.916;2022-08-21T12:46:46;99625.25;;;40.99;23.90
21779;BME280;11050;52.222;20.916;2022-08-21T12:49:26;99623.59;;;40.28;24.85
21779;BME280;11050;52.222;20.916;2022-08-21T12:52:09;99617.88;;;39.29;26.26
21779;BME280;11050;52.222;20.916;2022-08-21T12:54:44;99619.78;;;38.47;26.63
21779;BME280;11050;52.222;20.916;2022-08-21T12:57:23;99615.56;;;38.64;26.77
21779;BME280;11050;52.222;20.916;2022-08-21T13:00:05;99613.63;;;39.21;25.45
21779;BME280;11050;52.222;20.916;2022-08-21T13:02:43;99613.56;;;39.12;25.99
21779;BME280;11050;52.222;20.916;2022-08-21T13:05:30;99621.69;;;39.60;25.57
21779;BME280;11050;52.222;20.916;2022-08-21T13:07:56;99622.34;;;40.59;24.99
21779;BME280;11050;52.222;20.916;2022-08-21T13:10:32;99615.69;;;41.38;23.55
21779;BME280;11050;52.222;20.916;2022-08-21T13:13:06;99624.34;;;41.57;23.27
21779;BME280;11050;52.222;20.916;2022-08-21T13:15:37;99625.06;;;41.03;24.61
21779;BME280;11050;52.222;20.916;2022-08-21T13:18:06;99615.63;;;40.01;25.05
21779;BME280;11050;52.222;20.916;2022-08-21T13:20:39;99621.06;;;38.84;26.97
21779;BME280;11050;52.222;20.916;2022-08-21T13:23:26;99621.66;;;38.00;27.33
21779;BME280;11050;52.222;20.916;2022-08-21T13:25:53;99618.44;;;37.25;29.19
21779;BME280;11050;52.222;20.916;2022-08-21T13:28:22;99610.66;;;36.61;29.83
21779;BME280;11050;52.222;20.916;2022-08-21T13:30:54;99602.50;;;36.07;30.08
21779;BME280;11050;52.222;20.916;2022-08-21T13:33:25;99601.47;;;35.59;31.37
21779;BME280;11050;52.222;20.916;2022-08-21T13:36:10;99599.47;;;35.13;31.77
21779;BME280;11050;52.222;20.916;2022-08-21T13:38:40;99603.38;;;34.76;32.70
21779;BME280;11050;52.222;20.916;2022-08-21T13:41:20;99586.34;;;34.46;33.08
21779;BME280;11050;52.222;20.916;2022-08-21T13:43:57;99602.00;;;34.34;33.75
21779;BME280;11050;52.222;20.916;2022-08-21T13:46:29;99609.38;;;34.32;33.75
21779;BME280;11050;52.222;20.916;2022-08-21T13:48:56;99605.41;;;34.26;34.83
21779;BME280;11050;52.222;20.916;2022-08-21T13:51:24;99609.47;;;34.25;34.42
21779;BME280;11050;52.222;20.916;2022-08-21T13:53:51;99607.69;;;34.34;34.30
21779;BME280;11050;52.222;20.916;2022-08-21T13:56:29;99604.47;;;34.32;34.87
21779;BME280;11050;52.222;20.916;2022-08-21T13:59:00;99599.66;;;34.79;34.34
21779;BME280;11050;52.222;20.916;2022-08-21T14:01:37;99597.81;;;35.15;34.33
21779;BME280;11050;52.222;20.916;2022-08-21T14:06:38;99594.13;;;35.15;33.51
21779;BME280;11050;52.222;20.916;2022-08-21T14:09:34;99599.09;;;35.34;33.79
21779;BME280;11050;52.222;20.916;2022-08-21T14:12:24;99601.19;;;36.28;31.96
21779;BME280;11050;52.222;20.916;2022-08-21T14:14:55;99604.69;;;37.03;31.05
21779;BME280;11050;52.222;20.916;2022-08-21T14:17:48;99603.81;;;38.21;28.21
21779;BME280;11050;52.222;20.916;2022-08-21T14:20:35;99614.88;;;39.32;25.94
21779;BME280;11050;52.222;20.916;2022-08-21T14:23:02;99619.56;;;40.16;25.53
21779;BME280;11050;52.222;20.916;2022-08-21T14:25:42;99624.28;;;40.62;24.71
21779;BME280;11050;52.222;20.916;2022-08-21T14:30:53;99621.97;;;41.46;23.71